sensor_id;sensor_type;location;lat;lon;timestamp;pressure;altitude;pressure_sealevel;temperature;humidity
18813;BME280;9534;51.140;6.296;2023-05-02T00:02:39;100954.44;;;9.31;100.00
18813;BME280;9534;51.140;6.296;2023-05-02T00:06:44;100960.44;;;9.41;100.00
18813;BME280;9534;51.140;6.296;2023-05-02T00:10:47;100962.97;;;9.43;100.00
18813;BME280;9534;51.140;6.296;2023-05-02T00:14:50;100960.34;;;9.35;100.00
18813;BME280;9534;51.140;6.296;2023-05-02T00:18:54;100977.34;;;9.30;100.00
18813;BME280;9534;51.140;6.296;2023-05-02T00:22:58;100987.59;;;9.49;100.00
18813;BME280;9534;51.140;6.296;2023-05-02T00:27:01;100985.78;;;9.56;100.00
18813;BME280;9534;51.140;6.296;2023-05-02T00:31:04;100995.09;;;9.62;100.00
18813;BME280;9534;51.140;6.296;2023-05-02T00:35:07;101001.91;;;9.72;100.00
18813;BME280;9534;51.140;6.296;2023-05-02T00:39:12;100996.84;;;9.69;100.00
18813;BME280;9534;51.140;6.296;2023-05-02T00:43:15;100996.91;;;9.76;100.00
18813;BME280;9534;51.140;6.296;2023-05-02T00:47:18;100998.53;;;9.70;100.00
18813;BME280;9534;51.140;6.296;2023-05-02T00:51:21;101000.31;;;9.78;100.00
18813;BME280;9534;51.140;6.296;2023-05-02T00:55:26;101013.84;;;9.85;100.00
18813;BME280;9534;51.140;6.296;2023-05-02T00:59:29;101015.06;;;9.83;100.00
18813;BME280;9534;51.140;6.296;2023-05-02T01:03:35;101004.16;;;9.89;100.00
18813;BME280;9534;51.140;6.296;2023-05-02T01:07:45;101006.34;;;9.94;100.00
18813;BME280;9534;51.140;6.296;2023-05-02T01:11:52;101013.28;;;9.96;100.00
18813;BME280;9534;51.140;6.296;2023-05-02T01:15:58;101008.66;;;9.97;100.00
18813;BME280;9534;51.140;6.296;2023-05-02T01:20:04;101018.16;;;10.01;100.00
18813;BME280;9534;51.140;6.296;2023-05-02T01:24:09;101020.13;;;10.07;100.00
18813;BME280;9534;51.140;6.296;2023-05-02T01:28:16;101017.28;;;10.15;100.00
18813;BME280;9534;51.140;6.296;2023-05-02T01:32:24;101019.16;;;10.14;100.00
18813;BME280;9534;51.140;6.296;2023-05-02T01:36:29;101018.19;;;10.22;100.00
18813;BME280;9534;51.140;6.296;2023-05-02T01:40:33;101024.72;;;10.27;100.00
18813;BME280;9534;51.140;6.296;2023-05-02T01:44:37;101020.34;;;10.33;100.00
18813;BME280;9534;51.140;6.296;2023-05-02T01:48:43;101023.50;;;10.30;100.00
18813;BME280;9534;51.140;6.296;2023-05-02T01:52:48;101020.94;;;10.28;100.00
18813;BME280;9534;51.140;6.296;2023-05-02T01:56:52;101026.81;;;10.25;100.00
18813;BME280;9534;51.140;6.296;2023-05-02T02:00:57;101030.00;;;10.29;100.00
18813;BME280;9534;51.140;6.296;2023-05-02T02:05:03;101025.59;;;10.28;100.00
18813;BME280;9534;51.140;6.296;2023-05-02T02:09:07;101039.31;;;10.34;100.00
18813;BME280;9534;51.140;6.296;2023-05-02T02:13:12;101034.91;;;10.40;100.00
18813;BME280;9534;51.140;6.296;2023-05-02T02:17:20;101034.91;;;10.40;100.00
18813;BME280;9534;51.140;6.296;2023-05-02T02:21:27;101047.09;;;10.37;100.00
18813;BME280;9534;51.140;6.296;2023-05-02T02:25:32;101049.22;;;10.42;100.00
18813;BME280;9534;51.140;6.296;2023-05-02T02:29:36;101044.81;;;10.41;100.00
18813;BME280;9534;51.140;6.296;2023-05-02T02:33:39;101045.41;;;10.36;100.00
18813;BME280;9534;51.140;6.296;2023-05-02T02:37:46;101048.19;;;10.43;100.00
18813;BME280;9534;51.140;6.296;2023-05-02T02:41:54;101053.00;;;10.41;100.00
18813;BME280;9534;51.140;6.296;2023-05-02T02:46:06;101053.00;;;10.41;100.00
18813;BME280;9534;51.140;6.296;2023-05-02T02:50:18;101048.19;;;10.43;100.00
18813;BME280;9534;51.140;6.296;2023-05-02T02:54:27;101042.94;;;10.41;100.00
18813;BME280;9534;51.140;6.296;2023-05-02T02:58:35;101058.44;;;10.34;100.00
18813;BME280;9534;51.140;6.296;2023-05-02T03:02:41;101055.91;;;10.33;100.00
18813;BME280;9534;51.140;6.296;2023-05-02T03:06:45;101061.84;;;10.36;100.00
18813;BME280;9534;51.140;6.296;2023-05-02T03:10:50;101062.66;;;10.37;100.00
18813;BME280;9534;51.140;6.296;2023-05-02T03:14:53;101060.19;;;10.42;100.00
18813;BME280;9534;51.140;6.296;2023-05-02T03:19:02;101063.97;;;10.41;100.00
18813;BME280;9534;51.140;6.296;2023-05-02T03:23:06;101064.34;;;10.38;100.00
18813;BME280;9534;51.140;6.296;2023-05-02T03:27:10;101059.34;;;10.41;100.00
18813;BME280;9534;51.140;6.296;2023-05-02T03:31:15;101047.94;;;10.38;100.00
18813;BME280;9534;51.140;6.296;2023-05-02T03:35:19;101050.50;;;10.39;100.00
18813;BME280;9534;51.140;6.296;2023-05-02T03:39:24;101055.31;;;10.37;100.00
18813;BME280;9534;51.140;6.296;2023-05-02T03:43:28;101061.03;;;10.42;100.00
18813;BME280;9534;51.140;6.296;2023-05-02T03:47:32;101057.19;;;10.37;100.00
18813;BME280;9534;51.140;6.296;2023-05-02T03:51:35;101054.28;;;10.38;100.00
18813;BME280;9534;51.140;6.296;2023-05-02T03:55:38;101061.63;;;10.38;100.00
18813;BME280;9534;51.140;6.296;2023-05-02T03:59:45;101063.28;;;10.32;100.00
18813;BME280;9534;51.140;6.296;2023-05-02T04:03:58;101062.22;;;10.33;100.00
18813;BME280;9534;51.140;6.296;2023-05-02T04:08:05;101076.09;;;10.32;100.00
18813;BME280;9534;51.140;6.296;2023-05-02T04:12:09;101073.78;;;10.29;100.00
18813;BME280;9534;51.140;6.296;2023-05-02T04:16:17;101090.81;;;10.31;100.00
18813;BME280;9534;51.140;6.296;2023-05-02T04:20:20;101094.19;;;10.33;100.00
18813;BME280;9534;51.140;6.296;2023-05-02T04:24:26;101100.97;;;10.37;100.00
18813;BME280;9534;51.140;6.296;2023-05-02T04:28:30;101110.22;;;10.36;100.00
18813;BME280;9534;51.140;6.296;2023-05-02T04:32:36;101117.19;;;10.38;100.00
18813;BME280;9534;51.140;6.296;2023-05-02T04:36:40;101115.13;;;10.40;100.00
18813;BME280;9534;51.140;6.296;2023-05-02T04:40:46;101117.84;;;10.40;100.00
18813;BME280;9534;51.140;6.296;2023-05-02T04:44:54;101130.19;;;10.30;100.00
18813;BME280;9534;51.140;6.296;2023-05-02T04:48:58;101140.53;;;10.34;100.00
18813;BME280;9534;51.140;6.296;2023-05-02T04:53:01;101145.72;;;10.29;100.00
18813;BME280;9534;51.140;6.296;2023-05-02T04:57:05;101153.69;;;10.24;100.00
18813;BME280;9534;51.140;6.296;2023-05-02T05:01:15;101158.31;;;10.24;100.00
18813;BME280;9534;51.140;6.296;2023-05-02T05:05:21;101169.31;;;10.30;100.00
18813;BME280;9534;51.140;6.296;2023-05-02T05:09:24;101176.56;;;10.17;100.00
18813;BME280;9534;51.140;6.296;2023-05-02T05:13:28;101173.81;;;10.17;100.00
18813;BME280;9534;51.140;6.296;2023-05-02T05:17:31;101189.56;;;10.15;100.00
18813;BME280;9534;51.140;6.296;2023-05-02T05:21:37;101199.56;;;10.08;100.00
18813;BME280;9534;51.140;6.296;2023-05-02T05:25:41;101207.50;;;10.03;100.00
18813;BME280;9534;51.140;6.296;2023-05-02T05:29:49;101218.34;;;10.11;100.00
18813;BME280;9534;51.140;6.296;2023-05-02T05:33:52;101226.91;;;10.08;100.00
18813;BME280;9534;51.140;6.296;2023-05-02T05:37:58;101237.28;;;10.12;100.00
18813;BME280;9534;51.140;6.296;2023-05-02T05:42:02;101231.97;;;10.25;100.00
18813;BME280;9534;51.140;6.296;2023-05-02T05:46:07;101238.03;;;10.21;100.00
18813;BME280;9534;51.140;6.296;2023-05-02T05:50:11;101247.88;;;10.36;100.00
18813;BME280;9534;51.140;6.296;2023-05-02T05:54:17;101252.63;;;10.49;100.00
18813;BME280;9534;51.140;6.296;2023-05-02T05:58:20;101258.38;;;10.75;100.00
18813;BME280;9534;51.140;6.296;2023-05-02T06:02:24;101264.19;;;10.65;100.00
18813;BME280;9534;51.140;6.296;2023-05-02T06:06:29;101267.19;;;10.70;100.00
18813;BME280;9534;51.140;6.296;2023-05-02T06:10:33;101271.28;;;10.60;100.00
18813;BME280;9534;51.140;6.296;2023-05-02T06:14:37;101258.34;;;10.33;100.00
18813;BME280;9534;51.140;6.296;2023-05-02T06:18:40;101267.47;;;10.19;100.00
18813;BME280;9534;51.140;6.296;2023-05-02T06:22:43;101263.03;;;10.18;100.00
18813;BME280;9534;51.140;6.296;2023-05-02T06:26:48;101254.94;;;10.31;100.00
18813;BME280;9534;51.140;6.296;2023-05-02T06:30:55;101243.63;;;10.34;100.00
18813;BME280;9534;51.140;6.296;2023-05-02T06:34:58;101255.56;;;10.47;100.00
18813;BME280;9534;51.140;6.296;2023-05-02T06:39:01;101252.31;;;10.58;100.00
18813;BME280;9534;51.140;6.296;2023-05-02T06:43:05;101248.31;;;10.61;100.00
18813;BME280;9534;51.140;6.296;2023-05-02T06:47:09;101251.06;;;10.61;100.00
18813;BME280;9534;51.140;6.296;2023-05-02T06:51:12;101255.28;;;10.84;100.00
18813;BME280;9534;51.140;6.296;2023-05-02T06:55:15;101249.88;;;10.91;100.00
18813;BME280;9534;51.140;6.296;2023-05-02T06:59:20;101251.94;;;11.09;100.00
18813;BME280;9534;51.140;6.296;2023-05-02T07:03:22;101257.09;;;11.25;100.00
18813;BME280;9534;51.140;6.296;2023-05-02T07:07:25;101255.97;;;11.68;100.00
18813;BME280;9534;51.140;6.296;2023-05-02T07:11:28;101260.41;;;11.69;100.00
18813;BME280;9534;51.140;6.296;2023-05-02T07:15:33;101256.38;;;11.65;100.00
18813;BME280;9534;51.140;6.296;2023-05-02T07:19:36;101259.25;;;11.91;100.00
18813;BME280;9534;51.140;6.296;2023-05-02T07:23:38;101268.00;;;11.74;100.00
18813;BME280;9534;51.140;6.296;2023-05-02T07:27:41;101276.59;;;11.64;100.00
18813;BME280;9534;51.140;6.296;2023-05-02T07:31:46;101276.84;;;11.69;100.00
18813;BME280;9534;51.140;6.296;2023-05-02T07:35:49;101282.09;;;12.11;100.00
18813;BME280;9534;51.140;6.296;2023-05-02T07:39:52;101289.81;;;12.35;100.00
18813;BME280;9534;51.140;6.296;2023-05-02T07:43:55;101300.78;;;12.29;100.00
18813;BME280;9534;51.140;6.296;2023-05-02T07:47:59;101308.88;;;11.96;100.00
18813;BME280;9534;51.140;6.296;2023-05-02T07:52:03;101307.91;;;11.76;100.00
18813;BME280;9534;51.140;6.296;2023-05-02T07:56:06;101308.06;;;11.68;100.00
18813;BME280;9534;51.140;6.296;2023-05-02T08:00:10;101308.53;;;11.78;100.00
18813;BME280;9534;51.140;6.296;2023-05-02T08:04:17;101310.53;;;11.63;100.00
18813;BME280;9534;51.140;6.296;2023-05-02T08:08:20;101310.78;;;11.68;100.00
18813;BME280;9534;51.140;6.296;2023-05-02T08:12:23;101321.94;;;11.39;100.00
18813;BME280;9534;51.140;6.296;2023-05-02T08:16:26;101330.09;;;11.33;100.00
18813;BME280;9534;51.140;6.296;2023-05-02T08:20:30;101338.97;;;11.35;100.00
18813;BME280;9534;51.140;6.296;2023-05-02T08:24:33;101340.31;;;11.66;100.00
18813;BME280;9534;51.140;6.296;2023-05-02T08:28:36;101339.34;;;11.80;100.00
18813;BME280;9534;51.140;6.296;2023-05-02T08:32:39;101341.84;;;11.75;100.00
18813;BME280;9534;51.140;6.296;2023-05-02T08:36:43;101345.78;;;12.00;100.00
18813;BME280;9534;51.140;6.296;2023-05-02T08:40:46;101345.63;;;11.74;100.00
18813;BME280;9534;51.140;6.296;2023-05-02T08:44:49;101361.28;;;11.80;100.00
18813;BME280;9534;51.140;6.296;2023-05-02T08:48:53;101367.66;;;11.87;100.00
18813;BME280;9534;51.140;6.296;2023-05-02T08:53:00;101372.56;;;11.64;100.00
18813;BME280;9534;51.140;6.296;2023-05-02T08:57:05;101381.56;;;11.16;100.00
18813;BME280;9534;51.140;6.296;2023-05-02T09:01:09;101376.34;;;10.80;100.00
18813;BME280;9534;51.140;6.296;2023-05-02T09:05:12;101390.97;;;10.87;100.00
18813;BME280;9534;51.140;6.296;2023-05-02T09:09:22;101390.03;;;10.80;100.00
18813;BME280;9534;51.140;6.296;2023-05-02T09:13:32;101411.50;;;10.62;100.00
18813;BME280;9534;51.140;6.296;2023-05-02T09:17:40;101415.78;;;10.64;100.00
18813;BME280;9534;51.140;6.296;2023-05-02T09:21:43;101432.38;;;10.63;100.00
18813;BME280;9534;51.140;6.296;2023-05-02T09:25:47;101418.47;;;10.79;100.00
18813;BME280;9534;51.140;6.296;2023-05-02T09:29:50;101431.19;;;10.86;100.00
18813;BME280;9534;51.140;6.296;2023-05-02T09:33:54;101442.84;;;10.74;100.00
18813;BME280;9534;51.140;6.296;2023-05-02T09:37:57;101445.22;;;10.48;100.00
18813;BME280;9534;51.140;6.296;2023-05-02T09:42:01;101461.34;;;10.72;100.00
18813;BME280;9534;51.140;6.296;2023-05-02T09:46:05;101460.41;;;11.00;100.00
18813;BME280;9534;51.140;6.296;2023-05-02T09:50:09;101468.72;;;11.07;100.00
18813;BME280;9534;51.140;6.296;2023-05-02T09:54:12;101475.53;;;10.96;100.00
18813;BME280;9534;51.140;6.296;2023-05-02T09:58:22;101465.22;;;11.54;100.00
18813;BME280;9534;51.140;6.296;2023-05-02T10:02:27;101474.25;;;11.69;100.00
18813;BME280;9534;51.140;6.296;2023-05-02T10:06:32;101471.13;;;11.72;100.00
18813;BME280;9534;51.140;6.296;2023-05-02T10:10:35;101475.63;;;12.34;100.00
18813;BME280;9534;51.140;6.296;2023-05-02T10:14:40;101479.44;;;12.33;100.00
18813;BME280;9534;51.140;6.296;2023-05-02T10:18:46;101489.84;;;13.25;100.00
18813;BME280;9534;51.140;6.296;2023-05-02T10:22:49;101485.53;;;12.69;100.00
18813;BME280;9534;51.140;6.296;2023-05-02T10:26:54;101486.09;;;13.58;100.00
18813;BME280;9534;51.140;6.296;2023-05-02T10:30:58;101489.28;;;13.68;100.00
18813;BME280;9534;51.140;6.296;2023-05-02T10:35:03;101498.88;;;13.13;100.00
18813;BME280;9534;51.140;6.296;2023-05-02T10:39:07;101491.53;;;13.33;100.00
18813;BME280;9534;51.140;6.296;2023-05-02T10:43:12;101489.88;;;13.51;100.00
18813;BME280;9534;51.140;6.296;2023-05-02T10:47:18;101491.22;;;13.94;100.00
18813;BME280;9534;51.140;6.296;2023-05-02T10:51:26;101487.28;;;15.29;100.00
18813;BME280;9534;51.140;6.296;2023-05-02T10:55:29;101496.19;;;15.69;100.00
18813;BME280;9534;51.140;6.296;2023-05-02T10:59:32;101490.88;;;13.24;100.00
18813;BME280;9534;51.140;6.296;2023-05-02T11:03:56;101492.78;;;12.83;100.00
18813;BME280;9534;51.140;6.296;2023-05-02T11:12:42;101481.97;;;13.16;100.00
18813;BME280;9534;51.140;6.296;2023-05-02T11:17:05;101469.59;;;13.71;100.00
18813;BME280;9534;51.140;6.296;2023-05-02T11:21:27;101481.94;;;15.41;100.00
18813;BME280;9534;51.140;6.296;2023-05-02T11:25:33;101493.00;;;14.84;100.00
18813;BME280;9534;51.140;6.296;2023-05-02T11:29:52;101492.63;;;15.68;100.00
18813;BME280;9534;51.140;6.296;2023-05-02T11:33:57;101497.56;;;14.20;100.00
18813;BME280;9534;51.140;6.296;2023-05-02T11:38:02;101491.09;;;13.29;100.00
18813;BME280;9534;51.140;6.296;2023-05-02T11:42:06;101496.72;;;14.13;100.00
18813;BME280;9534;51.140;6.296;2023-05-02T11:46:09;101505.38;;;13.97;100.00
18813;BME280;9534;51.140;6.296;2023-05-02T11:50:12;101509.22;;;13.90;100.00
18813;BME280;9534;51.140;6.296;2023-05-02T11:54:18;101512.25;;;14.97;100.00
18813;BME280;9534;51.140;6.296;2023-05-02T11:58:22;101511.09;;;15.24;100.00
18813;BME280;9534;51.140;6.296;2023-05-02T12:02:35;101523.94;;;15.49;100.00
18813;BME280;9534;51.140;6.296;2023-05-02T12:06:43;101520.22;;;14.48;100.00
18813;BME280;9534;51.140;6.296;2023-05-02T12:10:57;101528.25;;;13.91;100.00
18813;BME280;9534;51.140;6.296;2023-05-02T12:15:02;101530.47;;;14.98;100.00
18813;BME280;9534;51.140;6.296;2023-05-02T12:19:05;101525.06;;;13.94;100.00
18813;BME280;9534;51.140;6.296;2023-05-02T12:23:08;101534.13;;;14.79;100.00
18813;BME280;9534;51.140;6.296;2023-05-02T12:27:13;101528.72;;;14.27;100.00
18813;BME280;9534;51.140;6.296;2023-05-02T12:31:17;101542.22;;;14.81;100.00
18813;BME280;9534;51.140;6.296;2023-05-02T12:35:20;101544.94;;;13.83;100.00
18813;BME280;9534;51.140;6.296;2023-05-02T12:39:32;101546.50;;;15.27;100.00
18813;BME280;9534;51.140;6.296;2023-05-02T12:43:43;101556.13;;;15.05;100.00
18813;BME280;9534;51.140;6.296;2023-05-02T12:47:46;101569.16;;;15.42;100.00
18813;BME280;9534;51.140;6.296;2023-05-02T12:51:51;101559.59;;;14.55;100.00
18813;BME280;9534;51.140;6.296;2023-05-02T12:56:00;101554.47;;;14.91;100.00
18813;BME280;9534;51.140;6.296;2023-05-02T13:00:08;101555.50;;;16.21;100.00
18813;BME280;9534;51.140;6.296;2023-05-02T13:04:11;101569.31;;;14.77;100.00
18813;BME280;9534;51.140;6.296;2023-05-02T13:08:14;101564.22;;;13.77;100.00
18813;BME280;9534;51.140;6.296;2023-05-02T13:12:17;101571.75;;;15.74;100.00
18813;BME280;9534;51.140;6.296;2023-05-02T13:16:21;101578.53;;;16.64;100.00
18813;BME280;9534;51.140;6.296;2023-05-02T13:20:25;101572.72;;;17.80;100.00
18813;BME280;9534;51.140;6.296;2023-05-02T13:24:27;101572.63;;;16.06;100.00
18813;BME280;9534;51.140;6.296;2023-05-02T13:28:30;101583.34;;;17.29;100.00
18813;BME280;9534;51.140;6.296;2023-05-02T13:32:35;101590.25;;;17.20;100.00
18813;BME280;9534;51.140;6.296;2023-05-02T13:36:38;101586.13;;;17.29;100.00
18813;BME280;9534;51.140;6.296;2023-05-02T13:40:47;101585.78;;;15.16;100.00
18813;BME280;9534;51.140;6.296;2023-05-02T13:44:50;101582.84;;;15.11;100.00
18813;BME280;9534;51.140;6.296;2023-05-02T13:48:54;101577.66;;;15.34;100.00
18813;BME280;9534;51.140;6.296;2023-05-02T13:52:57;101579.59;;;15.77;100.00
18813;BME280;9534;51.140;6.296;2023-05-02T13:57:00;101589.81;;;15.20;100.00
18813;BME280;9534;51.140;6.296;2023-05-02T14:01:04;101592.56;;;15.13;100.00
18813;BME280;9534;51.140;6.296;2023-05-02T14:05:10;101593.00;;;16.05;100.00
18813;BME280;9534;51.140;6.296;2023-05-02T14:09:13;101580.00;;;16.85;100.00
18813;BME280;9534;51.140;6.296;2023-05-02T14:13:17;101582.25;;;17.12;100.00
18813;BME280;9534;51.140;6.296;2023-05-02T14:17:20;101587.47;;;15.74;100.00
18813;BME280;9534;51.140;6.296;2023-05-02T14:21:27;101577.41;;;16.47;100.00
18813;BME280;9534;51.140;6.296;2023-05-02T14:25:30;101573.72;;;17.67;100.00
18813;BME280;9534;51.140;6.296;2023-05-02T14:29:32;101575.72;;;15.85;100.00
18813;BME280;9534;51.140;6.296;2023-05-02T14:33:35;101581.44;;;15.46;100.00
18813;BME280;9534;51.140;6.296;2023-05-02T14:37:40;101562.91;;;17.30;100.00
18813;BME280;9534;51.140;6.296;2023-05-02T14:41:45;101563.00;;;17.24;100.00
18813;BME280;9534;51.140;6.296;2023-05-02T14:45:48;101565.28;;;17.62;100.00
18813;BME280;9534;51.140;6.296;2023-05-02T14:49:51;101572.75;;;17.44;100.00
18813;BME280;9534;51.140;6.296;2023-05-02T14:53:56;101569.63;;;17.88;100.00
18813;BME280;9534;51.140;6.296;2023-05-02T14:57:59;101574.72;;;17.37;100.00
18813;BME280;9534;51.140;6.296;2023-05-02T15:02:01;101567.06;;;15.75;100.00
18813;BME280;9534;51.140;6.296;2023-05-02T15:06:05;101566.56;;;18.19;100.00
18813;BME280;9534;51.140;6.296;2023-05-02T15:10:09;101575.97;;;17.59;100.00
18813;BME280;9534;51.140;6.296;2023-05-02T15:14:12;101570.78;;;18.85;100.00
18813;BME280;9534;51.140;6.296;2023-05-02T15:18:15;101574.88;;;18.71;96.52
18813;BME280;9534;51.140;6.296;2023-05-02T15:22:18;101580.38;;;17.31;100.00
18813;BME280;9534;51.140;6.296;2023-05-02T15:26:24;101579.06;;;19.19;100.00
18813;BME280;9534;51.140;6.296;2023-05-02T15:30:27;101586.69;;;19.24;93.23
18813;BME280;9534;51.140;6.296;2023-05-02T15:34:30;101576.44;;;17.20;99.12
18813;BME280;9534;51.140;6.296;2023-05-02T15:38:32;101578.59;;;18.99;92.02
18813;BME280;9534;51.140;6.296;2023-05-02T15:42:41;101577.00;;;18.46;93.61
18813;BME280;9534;51.140;6.296;2023-05-02T15:46:44;101572.97;;;18.31;98.29
18813;BME280;9534;51.140;6.296;2023-05-02T15:50:47;101575.56;;;17.73;98.64
18813;BME280;9534;51.140;6.296;2023-05-02T15:54:50;101578.22;;;18.39;90.10
18813;BME280;9534;51.140;6.296;2023-05-02T15:58:55;101577.25;;;18.45;94.25
18813;BME280;9534;51.140;6.296;2023-05-02T16:02:57;101585.41;;;18.28;94.12
18813;BME280;9534;51.140;6.296;2023-05-02T16:07:04;101581.38;;;18.54;96.13
18813;BME280;9534;51.140;6.296;2023-05-02T16:11:07;101577.22;;;17.09;94.21
18813;BME280;9534;51.140;6.296;2023-05-02T16:15:11;101574.72;;;16.83;100.00
18813;BME280;9534;51.140;6.296;2023-05-02T16:19:14;101573.78;;;15.54;100.00
18813;BME280;9534;51.140;6.296;2023-05-02T16:23:18;101578.25;;;14.73;100.00
18813;BME280;9534;51.140;6.296;2023-05-02T16:27:22;101566.84;;;14.43;100.00
18813;BME280;9534;51.140;6.296;2023-05-02T16:31:27;101571.50;;;14.43;100.00
18813;BME280;9534;51.140;6.296;2023-05-02T16:35:29;101566.59;;;16.15;100.00
18813;BME280;9534;51.140;6.296;2023-05-02T16:39:32;101566.66;;;16.08;100.00
18813;BME280;9534;51.140;6.296;2023-05-02T16:43:35;101566.81;;;16.13;100.00
18813;BME280;9534;51.140;6.296;2023-05-02T16:47:40;101575.72;;;15.85;100.00
18813;BME280;9534;51.140;6.296;2023-05-02T16:51:43;101566.03;;;16.80;100.00
18813;BME280;9534;51.140;6.296;2023-05-02T16:55:49;101580.31;;;15.60;100.00
18813;BME280;9534;51.140;6.296;2023-05-02T16:59:52;101572.38;;;15.39;100.00
18813;BME280;9534;51.140;6.296;2023-05-02T17:03:56;101578.69;;;15.83;100.00
18813;BME280;9534;51.140;6.296;2023-05-02T17:07:59;101576.31;;;15.56;100.00
18813;BME280;9534;51.140;6.296;2023-05-02T17:12:02;101576.78;;;15.84;100.00
18813;BME280;9534;51.140;6.296;2023-05-02T17:16:05;101578.53;;;15.28;100.00
18813;BME280;9534;51.140;6.296;2023-05-02T17:20:10;101584.56;;;15.56;100.00
18813;BME280;9534;51.140;6.296;2023-05-02T17:24:13;101585.25;;;16.19;100.00
18813;BME280;9534;51.140;6.296;2023-05-02T17:28:17;101590.44;;;16.09;100.00
18813;BME280;9534;51.140;6.296;2023-05-02T17:32:21;101592.72;;;16.43;100.00
18813;BME280;9534;51.140;6.296;2023-05-02T17:36:26;101596.03;;;15.97;100.00
18813;BME280;9534;51.140;6.296;2023-05-02T17:40:28;101586.31;;;15.88;100.00
18813;BME280;9534;51.140;6.296;2023-05-02T17:44:31;101587.59;;;14.59;100.00
18813;BME280;9534;51.140;6.296;2023-05-02T17:48:36;101590.31;;;14.20;100.00
18813;BME280;9534;51.140;6.296;2023-05-02T17:52:40;101587.34;;;14.08;100.00
18813;BME280;9534;51.140;6.296;2023-05-02T17:56:43;101586.72;;;13.34;100.00
18813;BME280;9534;51.140;6.296;2023-05-02T18:00:46;101593.84;;;13.68;100.00
18813;BME280;9534;51.140;6.296;2023-05-02T18:04:49;101595.06;;;13.59;100.00
18813;BME280;9534;51.140;6.296;2023-05-02T18:08:53;101606.19;;;13.39;100.00
18813;BME280;9534;51.140;6.296;2023-05-02T18:12:56;101599.28;;;13.56;100.00
18813;BME280;9534;51.140;6.296;2023-05-02T18:16:59;101606.78;;;13.28;100.00
18813;BME280;9534;51.140;6.296;2023-05-02T18:21:02;101602.97;;;13.29;100.00
18813;BME280;9534;51.140;6.296;2023-05-02T18:25:08;101602.66;;;13.11;100.00
18813;BME280;9534;51.140;6.296;2023-05-02T18:29:11;101611.72;;;13.05;100.00
18813;BME280;9534;51.140;6.296;2023-05-02T18:33:14;101610.56;;;12.65;100.00
18813;BME280;9534;51.140;6.296;2023-05-02T18:37:17;101612.47;;;12.37;100.00
18813;BME280;9534;51.140;6.296;2023-05-02T18:41:21;101607.88;;;11.96;100.00
18813;BME280;9534;51.140;6.296;2023-05-02T18:45:24;101612.88;;;11.57;100.00
18813;BME280;9534;51.140;6.296;2023-05-02T18:49:28;101618.13;;;11.38;100.00
18813;BME280;9534;51.140;6.296;2023-05-02T18:53:31;101620.88;;;11.09;100.00
18813;BME280;9534;51.140;6.296;2023-05-02T18:57:36;101620.69;;;10.96;100.00
18813;BME280;9534;51.140;6.296;2023-05-02T19:01:38;101625.31;;;10.81;100.00
18813;BME280;9534;51.140;6.296;2023-05-02T19:05:42;101632.56;;;10.60;100.00
18813;BME280;9534;51.140;6.296;2023-05-02T19:09:46;101635.69;;;10.57;100.00
18813;BME280;9534;51.140;6.296;2023-05-02T19:13:50;101642.53;;;10.38;100.00
18813;BME280;9534;51.140;6.296;2023-05-02T19:17:53;101649.16;;;10.21;100.00
18813;BME280;9534;51.140;6.296;2023-05-02T19:21:56;101657.31;;;10.07;100.00
18813;BME280;9534;51.140;6.296;2023-05-02T19:25:59;101658.75;;;9.95;100.00
18813;BME280;9534;51.140;6.296;2023-05-02T19:30:04;101661.84;;;9.92;100.00
18813;BME280;9534;51.140;6.296;2023-05-02T19:34:09;101662.50;;;9.72;100.00
18813;BME280;9534;51.140;6.296;2023-05-02T19:38:12;101660.66;;;9.64;100.00
18813;BME280;9534;51.140;6.296;2023-05-02T19:42:16;101660.84;;;9.63;100.00
18813;BME280;9534;51.140;6.296;2023-05-02T19:46:21;101659.19;;;9.54;100.00
18813;BME280;9534;51.140;6.296;2023-05-02T19:50:24;101665.47;;;9.54;100.00
18813;BME280;9534;51.140;6.296;2023-05-02T19:54:27;101664.22;;;9.34;100.00
18813;BME280;9534;51.140;6.296;2023-05-02T19:58:31;101676.00;;;9.35;100.00
18813;BME280;9534;51.140;6.296;2023-05-02T20:02:35;101675.53;;;9.23;100.00
18813;BME280;9534;51.140;6.296;2023-05-02T20:06:38;101685.13;;;9.11;100.00
18813;BME280;9534;51.140;6.296;2023-05-02T20:10:41;101687.00;;;9.11;100.00
18813;BME280;9534;51.140;6.296;2023-05-02T20:14:44;101683.44;;;9.10;100.00
18813;BME280;9534;51.140;6.296;2023-05-02T20:18:49;101685.53;;;8.92;100.00
18813;BME280;9534;51.140;6.296;2023-05-02T20:22:53;101685.56;;;8.76;100.00
18813;BME280;9534;51.140;6.296;2023-05-02T20:26:57;101698.88;;;8.71;100.00
18813;BME280;9534;51.140;6.296;2023-05-02T20:31:00;101688.00;;;8.56;100.00
18813;BME280;9534;51.140;6.296;2023-05-02T20:35:05;101694.81;;;8.52;100.00
18813;BME280;9534;51.140;6.296;2023-05-02T20:39:08;101701.97;;;8.37;100.00
18813;BME280;9534;51.140;6.296;2023-05-02T20:43:12;101709.78;;;8.24;100.00
18813;BME280;9534;51.140;6.296;2023-05-02T20:47:19;101711.66;;;8.15;100.00
18813;BME280;9534;51.140;6.296;2023-05-02T20:51:24;101714.03;;;8.10;100.00
18813;BME280;9534;51.140;6.296;2023-05-02T20:55:28;101715.38;;;7.98;100.00
18813;BME280;9534;51.140;6.296;2023-05-02T20:59:31;101711.75;;;7.74;100.00
18813;BME280;9534;51.140;6.296;2023-05-02T21:03:34;101712.50;;;7.58;100.00
18813;BME280;9534;51.140;6.296;2023-05-02T21:07:43;101712.50;;;7.58;100.00
18813;BME280;9534;51.140;6.296;2023-05-02T21:11:46;101722.81;;;7.80;100.00
18813;BME280;9534;51.140;6.296;2023-05-02T21:15:49;101717.13;;;7.58;100.00
18813;BME280;9534;51.140;6.296;2023-05-02T21:19:52;101726.00;;;7.60;100.00
18813;BME280;9534;51.140;6.296;2023-05-02T21:23:57;101731.06;;;7.55;100.00
18813;BME280;9534;51.140;6.296;2023-05-02T21:28:00;101731.22;;;7.53;100.00